createdAt,value
2023-02-12T00:01:42.715Z,37.28
2023-02-12T00:04:10.911Z,32.50
2023-02-12T00:06:40.663Z,29.77
2023-02-12T00:09:10.880Z,34.45
2023-02-12T00:11:38.767Z,33.00
2023-02-12T00:14:06.918Z,31.83
2023-02-12T00:16:34.690Z,31.00
2023-02-12T00:19:02.922Z,36.63
2023-02-12T00:21:30.696Z,33.88
2023-02-12T00:23:58.953Z,35.58
2023-02-12T00:26:26.907Z,31.77
2023-02-12T00:28:55.591Z,31.95
2023-02-12T00:31:29.406Z,32.00
2023-02-12T00:33:59.743Z,33.33
2023-02-12T00:36:32.027Z,35.65
2023-02-12T00:39:01.121Z,33.40
2023-02-12T00:41:28.991Z,32.55
2023-02-12T00:43:57.028Z,31.80
2023-02-12T00:46:24.779Z,34.65
2023-02-12T00:48:53.427Z,32.00
2023-02-12T00:51:21.321Z,31.02
2023-02-12T00:53:49.346Z,32.28
2023-02-12T00:56:17.062Z,31.58
2023-02-12T00:58:45.261Z,32.60
2023-02-12T01:01:13.210Z,32.00
2023-02-12T01:03:41.352Z,31.80
2023-02-12T01:06:09.452Z,30.98
2023-02-12T01:08:40.644Z,31.00
2023-02-12T01:11:08.557Z,29.70
2023-02-12T01:13:36.978Z,31.00
2023-02-12T01:16:25.223Z,31.42
2023-02-12T01:22:17.552Z,32.13
2023-02-12T01:24:45.626Z,31.42
2023-02-12T01:27:13.307Z,32.35
2023-02-12T01:29:45.681Z,32.65
2023-02-12T01:32:13.617Z,32.60
2023-02-12T01:34:43.369Z,33.72
2023-02-12T01:37:11.225Z,32.15
2023-02-12T01:39:39.373Z,32.15
2023-02-12T01:42:07.169Z,34.00
2023-02-12T01:44:37.262Z,35.03
2023-02-12T01:47:06.486Z,34.13
2023-02-12T01:49:40.676Z,33.58
2023-02-12T01:52:21.033Z,33.42
2023-02-12T01:54:51.031Z,32.92
2023-02-12T01:57:19.249Z,34.58
2023-02-12T01:59:52.625Z,34.60
2023-02-12T02:02:20.727Z,31.20
2023-02-12T02:04:59.153Z,32.03
2023-02-12T02:07:29.712Z,31.17
2023-02-12T02:09:59.476Z,31.30
2023-02-12T02:12:50.922Z,30.75
2023-02-12T02:15:19.270Z,30.55
2023-02-12T02:18:12.860Z,30.67
2023-02-12T02:21:14.833Z,29.63
2023-02-12T02:24:00.213Z,30.13
2023-02-12T02:26:42.206Z,31.13
2023-02-12T02:32:31.571Z,32.30
2023-02-12T02:35:23.921Z,31.13
2023-02-12T02:37:58.021Z,32.40
2023-02-12T02:40:35.882Z,31.42
2023-02-12T02:43:30.922Z,33.30
2023-02-12T02:46:35.654Z,31.58
2023-02-12T02:52:52.956Z,33.38
2023-02-12T02:55:26.264Z,42.13
2023-02-12T02:58:37.104Z,32.33
2023-02-12T03:01:14.494Z,31.98
2023-02-12T03:03:55.321Z,31.65
2023-02-12T03:06:40.483Z,31.20
2023-02-12T03:09:34.660Z,30.85
2023-02-12T03:12:10.947Z,30.30
2023-02-12T03:14:48.484Z,30.88
2023-02-12T03:17:40.705Z,30.92
2023-02-12T03:20:21.464Z,31.17
2023-02-12T03:22:56.882Z,32.70
2023-02-12T03:25:34.225Z,30.60
2023-02-12T03:28:34.657Z,31.00
2023-02-12T03:31:41.018Z,31.13
2023-02-12T03:34:22.236Z,31.92
2023-02-12T03:37:09.414Z,31.20
2023-02-12T03:40:04.678Z,31.15
2023-02-12T03:43:02.532Z,30.55
2023-02-12T03:45:53.845Z,30.95
2023-02-12T03:48:42.456Z,32.30
2023-02-12T03:51:22.841Z,32.47
2023-02-12T03:53:50.553Z,37.20
2023-02-12T03:59:36.856Z,36.00
2023-02-12T04:02:05.327Z,36.78
2023-02-12T04:04:33.847Z,35.33
2023-02-12T04:07:02.534Z,35.17
2023-02-12T04:09:32.227Z,32.13
2023-02-12T04:12:19.332Z,32.45
2023-02-12T04:15:12.600Z,31.05
2023-02-12T04:17:52.261Z,31.33
2023-02-12T04:20:20.034Z,31.33
2023-02-12T04:23:12.517Z,31.50
2023-02-12T04:25:49.136Z,31.70
2023-02-12T04:28:36.347Z,32.40
2023-02-12T04:31:18.665Z,35.67
2023-02-12T04:33:54.208Z,35.10
2023-02-12T04:36:27.430Z,31.88
2023-02-12T04:39:05.855Z,31.13
2023-02-12T04:41:33.698Z,28.88
2023-02-12T04:44:19.144Z,31.17
2023-02-12T04:46:46.918Z,33.10
2023-02-12T04:49:17.600Z,35.33
2023-02-12T04:51:46.798Z,34.25
2023-02-12T04:54:16.668Z,30.90
2023-02-12T04:56:44.627Z,32.78
2023-02-12T04:59:13.185Z,28.40
2023-02-12T05:01:43.630Z,32.00
2023-02-12T05:04:14.890Z,34.08
2023-02-12T05:06:44.056Z,34.45
2023-02-12T05:09:18.388Z,34.45
2023-02-12T05:11:47.699Z,39.47
2023-02-12T05:14:16.167Z,34.97
2023-02-12T05:16:44.220Z,33.08
2023-02-12T05:19:12.453Z,32.85
2023-02-12T05:21:40.223Z,31.70
2023-02-12T05:24:08.922Z,30.90
2023-02-12T05:26:37.718Z,32.90
2023-02-12T05:29:05.838Z,31.70
2023-02-12T05:31:34.224Z,31.70
2023-02-12T05:34:02.713Z,32.25
2023-02-12T05:36:30.433Z,32.70
2023-02-12T05:39:00.713Z,34.92
2023-02-12T05:41:29.186Z,35.35
2023-02-12T05:43:59.940Z,36.25
2023-02-12T05:46:28.077Z,34.88
2023-02-12T05:48:56.292Z,37.47
2023-02-12T05:51:26.603Z,33.58
2023-02-12T05:54:00.579Z,33.53
2023-02-12T05:56:33.554Z,34.25
2023-02-12T05:59:08.580Z,32.22
2023-02-12T06:01:39.350Z,40.20
2023-02-12T06:04:11.274Z,61.30
2023-02-12T06:06:42.636Z,54.53
2023-02-12T06:09:12.510Z,40.67
2023-02-12T06:11:40.688Z,36.53
2023-02-12T06:14:15.370Z,34.27
2023-02-12T06:16:47.239Z,37.55
2023-02-12T06:19:16.106Z,36.15
2023-02-12T06:21:44.223Z,35.13
2023-02-12T06:24:17.072Z,41.03
2023-02-12T06:26:45.658Z,35.67
2023-02-12T06:29:13.797Z,34.60
2023-02-12T06:31:42.410Z,37.88
2023-02-12T06:34:13.269Z,34.63
2023-02-12T06:36:45.405Z,31.52
2023-02-12T06:39:15.622Z,31.23
2023-02-12T06:41:44.402Z,30.73
2023-02-12T06:44:13.554Z,31.30
2023-02-12T06:46:41.559Z,31.63
2023-02-12T06:49:13.317Z,31.08
2023-02-12T06:51:42.200Z,32.70
2023-02-12T06:54:15.228Z,31.88
2023-02-12T06:56:43.576Z,33.63
2023-02-12T06:59:16.998Z,33.58
2023-02-12T07:01:45.552Z,34.90
2023-02-12T07:04:13.955Z,34.10
2023-02-12T07:06:42.220Z,32.60
2023-02-12T07:09:10.787Z,35.05
2023-02-12T07:11:39.483Z,35.20
2023-02-12T07:14:07.954Z,36.30
2023-02-12T07:16:35.879Z,36.27
2023-02-12T07:19:04.207Z,33.88
2023-02-12T07:21:33.200Z,34.28
2023-02-12T07:24:02.241Z,33.80
2023-02-12T07:26:31.603Z,33.97
2023-02-12T07:29:00.169Z,34.90
2023-02-12T07:31:29.163Z,31.38
2023-02-12T07:34:00.707Z,34.47
2023-02-12T07:36:31.707Z,35.42
2023-02-12T07:39:02.008Z,34.70
2023-02-12T07:41:34.436Z,34.73
2023-02-12T07:44:07.849Z,34.80
2023-02-12T07:46:39.794Z,37.03
2023-02-12T07:49:12.703Z,35.03
2023-02-12T07:51:41.175Z,36.33
2023-02-12T07:54:11.330Z,35.57
2023-02-12T07:56:41.240Z,35.05
2023-02-12T07:59:14.286Z,39.90
2023-02-12T08:01:47.947Z,41.55
2023-02-12T08:04:22.292Z,35.72
2023-02-12T08:06:52.402Z,45.07
2023-02-12T08:09:25.915Z,54.92
2023-02-12T08:11:54.601Z,40.65
2023-02-12T08:14:23.372Z,39.47
2023-02-12T08:16:51.627Z,38.00
2023-02-12T08:19:23.994Z,35.47
2023-02-12T08:21:55.456Z,35.95
2023-02-12T08:24:24.197Z,34.00
2023-02-12T08:26:52.811Z,34.17
2023-02-12T08:29:24.763Z,33.55
2023-02-12T08:32:00.213Z,39.37
2023-02-12T08:34:31.610Z,38.22
2023-02-12T08:36:59.858Z,37.38
2023-02-12T08:39:30.997Z,35.65
2023-02-12T08:42:02.148Z,33.33
2023-02-12T08:44:30.531Z,29.83
2023-02-12T08:46:58.715Z,30.50
2023-02-12T08:49:30.841Z,31.95
2023-02-12T08:52:00.233Z,32.35
2023-02-12T08:54:30.490Z,32.42
2023-02-12T08:57:01.716Z,33.80
2023-02-12T08:59:31.109Z,32.42
2023-02-12T09:02:00.168Z,32.65
2023-02-12T09:04:29.946Z,30.48
2023-02-12T09:06:57.866Z,34.35
2023-02-12T09:09:26.207Z,32.60
2023-02-12T09:11:54.097Z,33.90
2023-02-12T09:14:25.352Z,33.85
2023-02-12T09:16:54.709Z,32.03
2023-02-12T09:19:25.281Z,32.50
2023-02-12T09:21:56.748Z,29.37
2023-02-12T09:24:28.484Z,30.77
2023-02-12T09:26:56.939Z,32.85
2023-02-12T09:29:25.657Z,33.25
2023-02-12T09:31:55.760Z,36.22
2023-02-12T09:34:24.378Z,33.93
2023-02-12T09:36:53.418Z,32.42
2023-02-12T09:39:22.700Z,32.60
2023-02-12T09:42:32.527Z,33.45
2023-02-12T09:45:09.053Z,36.13
2023-02-12T09:47:46.096Z,32.83
2023-02-12T09:50:51.703Z,31.35
2023-02-12T09:53:25.632Z,32.67
2023-02-12T09:55:54.418Z,34.00
2023-02-12T09:58:57.651Z,36.15
2023-02-12T10:01:28.857Z,39.70
2023-02-12T10:03:57.463Z,33.15
2023-02-12T10:06:31.726Z,34.83
2023-02-12T10:09:23.559Z,33.65
2023-02-12T10:12:11.832Z,33.72
2023-02-12T10:15:09.462Z,31.23
2023-02-12T10:18:02.517Z,31.15
2023-02-12T10:20:55.379Z,32.45
2023-02-12T10:23:52.820Z,31.70
2023-02-12T10:26:30.690Z,31.75
2023-02-12T10:29:11.447Z,29.97
2023-02-12T10:31:45.009Z,33.60
2023-02-12T10:34:45.349Z,33.92
2023-02-12T10:37:48.576Z,34.35
2023-02-12T10:40:30.799Z,33.83
2023-02-12T10:42:59.756Z,31.17
2023-02-12T10:45:34.112Z,31.02
2023-02-12T10:48:17.443Z,33.83
2023-02-12T10:51:21.890Z,33.83
2023-02-12T10:53:49.947Z,38.13
2023-02-12T10:56:25.432Z,38.80
2023-02-12T10:59:01.103Z,37.17
2023-02-12T11:01:34.690Z,45.60
2023-02-12T11:04:24.164Z,38.03
2023-02-12T11:07:02.298Z,38.65
2023-02-12T11:09:49.300Z,34.93
2023-02-12T11:12:33.631Z,32.22
2023-02-12T11:15:08.326Z,34.58
2023-02-12T11:17:41.489Z,39.90
2023-02-12T11:20:16.638Z,42.08
2023-02-12T11:23:03.439Z,40.40
2023-02-12T11:25:36.828Z,41.47
2023-02-12T11:28:15.999Z,40.65
2023-02-12T11:30:52.767Z,33.92
2023-02-12T11:33:27.203Z,31.98
2023-02-12T11:35:59.782Z,35.07
2023-02-12T11:38:35.343Z,33.30
2023-02-12T11:41:19.668Z,32.45
2023-02-12T11:52:08.040Z,30.40
2023-02-12T11:54:48.211Z,32.05
2023-02-12T11:57:47.510Z,32.33
2023-02-12T12:03:55.740Z,30.02
2023-02-12T12:06:41.993Z,28.77
2023-02-12T12:09:09.916Z,28.55
2023-02-12T12:11:57.579Z,29.95
2023-02-12T12:15:01.562Z,28.25
2023-02-12T12:18:34.528Z,31.15
2023-02-12T12:21:34.745Z,28.67
2023-02-12T12:27:55.779Z,30.60
2023-02-12T12:30:48.719Z,26.98
2023-02-12T12:33:28.194Z,25.42
2023-02-12T12:36:05.221Z,28.17
2023-02-12T12:38:56.648Z,26.35
2023-02-12T12:41:57.941Z,25.48
2023-02-12T12:44:56.884Z,23.45
2023-02-12T12:47:46.987Z,29.02
2023-02-12T12:50:25.971Z,25.30
2023-02-12T12:53:21.991Z,27.52
2023-02-12T12:56:01.690Z,27.38
2023-02-12T12:58:55.901Z,28.17
2023-02-12T13:02:02.691Z,34.92
2023-02-12T13:04:54.096Z,24.90
2023-02-12T13:07:41.744Z,27.35
2023-02-12T13:10:36.236Z,24.73
2023-02-12T13:13:23.884Z,36.60
2023-02-12T13:16:20.129Z,24.80
2023-02-12T13:19:18.351Z,27.33
2023-02-12T13:25:32.540Z,26.05
2023-02-12T13:28:05.944Z,24.27
2023-02-12T13:30:41.251Z,24.23
2023-02-12T13:33:25.933Z,24.50
2023-02-12T13:36:00.408Z,24.15
2023-02-12T13:38:41.638Z,25.35
2023-02-12T13:41:12.265Z,25.35
2023-02-12T13:43:48.356Z,25.80
2023-02-12T13:46:36.444Z,24.80
2023-02-12T13:49:24.679Z,25.20
2023-02-12T13:52:03.004Z,26.55
2023-02-12T13:54:44.215Z,24.58
2023-02-12T13:57:20.340Z,25.60
2023-02-12T13:59:49.554Z,25.37
2023-02-12T14:02:39.537Z,25.27
2023-02-12T14:05:30.301Z,25.38
2023-02-12T14:08:08.827Z,26.52
2023-02-12T14:10:41.596Z,24.95
2023-02-12T14:13:20.299Z,25.20
2023-02-12T14:15:56.233Z,24.98
2023-02-12T14:18:37.473Z,24.65
2023-02-12T14:21:14.591Z,26.92
2023-02-12T14:23:45.068Z,30.92
2023-02-12T14:26:22.324Z,27.37
2023-02-12T14:29:00.779Z,26.50
2023-02-12T14:31:37.192Z,28.88
2023-02-12T14:34:08.451Z,28.42
2023-02-12T14:36:41.204Z,28.95
2023-02-12T14:39:21.637Z,28.40
2023-02-12T14:41:54.885Z,27.45
2023-02-12T14:44:29.947Z,28.70
2023-02-12T14:47:15.322Z,26.52
2023-02-12T14:49:49.548Z,26.63
2023-02-12T14:52:27.588Z,26.10
2023-02-12T14:55:05.948Z,26.75
2023-02-12T14:57:43.811Z,28.30
2023-02-12T15:00:14.586Z,27.45
2023-02-12T15:03:10.221Z,26.08
2023-02-12T15:05:48.428Z,25.37
2023-02-12T15:08:19.696Z,26.92
2023-02-12T15:10:53.801Z,26.10
2023-02-12T15:13:31.660Z,26.20
2023-02-12T15:16:28.906Z,27.75
2023-02-12T15:19:19.782Z,26.87
2023-02-12T15:21:48.880Z,26.65
2023-02-12T15:24:24.473Z,24.23
2023-02-12T15:26:54.806Z,24.40
2023-02-12T15:29:29.878Z,23.92
2023-02-12T15:32:01.018Z,22.27
2023-02-12T15:34:34.127Z,23.48
2023-02-12T15:37:05.171Z,23.67
2023-02-12T15:39:44.597Z,22.20
2023-02-12T15:42:32.095Z,26.30
2023-02-12T15:45:19.587Z,27.57
2023-02-12T15:48:00.950Z,23.60
2023-02-12T15:50:35.076Z,26.05
2023-02-12T15:53:04.307Z,25.10
2023-02-12T15:55:41.086Z,25.40
2023-02-12T15:58:21.572Z,23.80
2023-02-12T16:00:50.581Z,25.13
2023-02-12T16:03:34.397Z,28.08
2023-02-12T16:06:17.281Z,43.80
2023-02-12T16:08:50.839Z,51.92
2023-02-12T16:11:22.311Z,35.33
2023-02-12T16:14:04.488Z,33.00
2023-02-12T16:16:45.773Z,32.45
2023-02-12T16:19:23.677Z,30.88
2023-02-12T16:22:19.949Z,31.35
2023-02-12T16:24:53.338Z,32.00
2023-02-12T16:27:32.905Z,37.10
2023-02-12T16:30:07.362Z,60.15
2023-02-12T16:32:43.679Z,35.17
2023-02-12T16:38:48.934Z,28.07
2023-02-12T16:41:31.006Z,26.70
2023-02-12T16:44:02.492Z,25.73
2023-02-12T16:46:33.307Z,25.77
2023-02-12T16:49:02.870Z,29.65
2023-02-12T16:51:34.822Z,36.93
2023-02-12T16:54:26.200Z,38.65
2023-02-12T16:56:54.240Z,35.08
2023-02-12T16:59:22.599Z,32.83
2023-02-12T17:02:15.311Z,45.95
2023-02-12T17:04:44.047Z,49.50
2023-02-12T17:07:24.590Z,46.38
2023-02-12T17:09:52.991Z,41.70
2023-02-12T17:12:21.121Z,41.33
2023-02-12T17:14:50.449Z,41.58
2023-02-12T17:17:18.593Z,49.80
2023-02-12T17:19:46.989Z,49.10
2023-02-12T17:22:30.610Z,89.75
2023-02-12T17:25:11.844Z,56.08
2023-02-12T17:27:54.325Z,51.13
2023-02-12T17:30:31.597Z,48.67
2023-02-12T17:33:01.843Z,46.00
2023-02-12T17:35:30.504Z,46.92
2023-02-12T17:37:58.259Z,43.50
2023-02-12T17:40:26.697Z,42.88
2023-02-12T17:42:54.599Z,39.77
2023-02-12T17:45:23.203Z,35.45
2023-02-12T17:47:53.929Z,33.30
2023-02-12T17:50:25.783Z,31.17
2023-02-12T17:52:59.078Z,30.85
2023-02-12T17:55:34.446Z,33.53
2023-02-12T17:58:03.625Z,29.90
2023-02-12T18:00:32.140Z,31.92
2023-02-12T18:03:05.602Z,32.60
2023-02-12T18:05:47.667Z,35.85
2023-02-12T18:08:17.474Z,35.40
2023-02-12T18:11:08.104Z,31.38
2023-02-12T18:13:36.524Z,27.25
2023-02-12T18:16:11.300Z,31.58
2023-02-12T18:18:40.806Z,28.25
2023-02-12T18:21:12.770Z,31.00
2023-02-12T18:23:45.323Z,29.33
2023-02-12T18:26:47.387Z,31.92
2023-02-12T18:29:30.955Z,28.40
2023-02-12T18:32:09.479Z,30.08
2023-02-12T18:34:48.903Z,29.47
2023-02-12T18:37:23.530Z,41.92
2023-02-12T18:39:57.067Z,34.45
2023-02-12T18:42:26.694Z,38.50
2023-02-12T18:44:55.593Z,38.80
2023-02-12T18:48:07.334Z,36.57
2023-02-12T18:50:35.770Z,34.22
2023-02-12T18:53:08.929Z,34.85
2023-02-12T18:55:44.867Z,37.08
2023-02-12T18:58:13.832Z,37.50
2023-02-12T19:00:45.285Z,34.03
2023-02-12T19:03:15.335Z,32.78
2023-02-12T19:05:48.848Z,31.08
2023-02-12T19:08:44.403Z,28.45
2023-02-12T19:11:14.915Z,34.70
2023-02-12T19:13:45.634Z,29.30
2023-02-12T19:16:52.715Z,32.03
2023-02-12T19:22:21.149Z,34.00
2023-02-12T19:24:52.431Z,42.60
2023-02-12T19:27:21.110Z,34.27
2023-02-12T19:29:50.640Z,33.72
2023-02-12T19:32:21.738Z,39.58
2023-02-12T19:34:50.993Z,40.58
2023-02-12T19:37:18.991Z,41.13
2023-02-12T19:40:18.432Z,39.07
2023-02-12T19:42:48.390Z,38.67
2023-02-12T19:45:17.813Z,39.95
2023-02-12T19:47:46.988Z,32.13
2023-02-12T19:50:15.836Z,33.85
2023-02-12T19:52:43.516Z,33.77
2023-02-12T19:55:12.306Z,33.50
2023-02-12T19:58:07.005Z,30.73
2023-02-12T20:00:35.433Z,33.70
2023-02-12T20:03:03.345Z,37.30
2023-02-12T20:05:32.261Z,35.90
2023-02-12T20:08:00.192Z,34.72
2023-02-12T20:10:28.604Z,41.88
2023-02-12T20:12:56.432Z,35.88
2023-02-12T20:15:25.954Z,38.17
2023-02-12T20:17:53.836Z,38.50
2023-02-12T20:20:22.470Z,40.22
2023-02-12T20:22:50.496Z,40.65
2023-02-12T20:25:18.863Z,41.50
2023-02-12T20:27:46.725Z,41.83
2023-02-12T20:30:16.331Z,54.80
2023-02-12T20:32:53.226Z,50.10
2023-02-12T20:35:21.663Z,47.55
2023-02-12T20:37:52.443Z,52.45
2023-02-12T20:40:20.908Z,50.55
2023-02-12T20:42:48.843Z,71.90
2023-02-12T20:45:17.156Z,45.85
2023-02-12T20:47:45.066Z,40.38
2023-02-12T20:50:13.492Z,37.08
2023-02-12T20:52:42.076Z,38.33
2023-02-12T21:01:43.790Z,37.25
2023-02-12T21:04:14.951Z,40.70
2023-02-12T21:06:43.760Z,38.15
2023-02-12T21:09:14.542Z,38.70
2023-02-12T21:11:45.726Z,35.72
2023-02-12T21:14:24.138Z,36.20
2023-02-12T21:16:55.725Z,35.95
2023-02-12T21:19:25.095Z,36.55
2023-02-12T21:21:53.549Z,38.63
2023-02-12T21:24:25.166Z,40.00
2023-02-12T21:26:54.644Z,43.35
2023-02-12T21:29:23.258Z,44.53
2023-02-12T21:31:51.936Z,39.13
2023-02-12T21:34:22.958Z,41.87
2023-02-12T21:36:53.195Z,41.00
2023-02-12T21:39:28.099Z,39.63
2023-02-12T21:42:02.794Z,35.47
2023-02-12T21:44:35.718Z,36.15
2023-02-12T21:47:04.455Z,41.40
2023-02-12T21:49:32.560Z,37.83
2023-02-12T21:52:02.984Z,34.90
2023-02-12T21:54:31.596Z,33.90
2023-02-12T21:57:00.286Z,34.95
2023-02-12T21:59:31.877Z,33.03
2023-02-12T22:02:01.143Z,35.60
2023-02-12T22:04:29.285Z,40.80
2023-02-12T22:07:27.548Z,32.03
2023-02-12T22:09:57.007Z,24.98
2023-02-12T22:12:24.846Z,23.67
2023-02-12T22:14:52.920Z,29.65
2023-02-12T22:17:20.692Z,43.22
2023-02-12T22:19:49.005Z,36.17
2023-02-12T22:22:16.826Z,32.05
2023-02-12T22:24:45.073Z,27.57
2023-02-12T22:27:13.072Z,31.33
2023-02-12T22:29:41.336Z,30.30
2023-02-12T22:32:09.129Z,26.48
2023-02-12T22:34:37.266Z,30.20
2023-02-12T22:37:05.212Z,25.97
2023-02-12T22:39:33.573Z,24.85
2023-02-12T22:42:01.452Z,28.85
2023-02-12T22:44:30.793Z,30.33
2023-02-12T22:46:58.632Z,30.45
2023-02-12T22:49:26.801Z,33.27
2023-02-12T22:51:55.028Z,35.13
2023-02-12T22:54:23.243Z,30.85
2023-02-12T22:56:52.392Z,32.22
2023-02-12T22:59:20.610Z,32.08
2023-02-12T23:01:48.208Z,32.60
2023-02-12T23:04:18.657Z,30.92
2023-02-12T23:06:47.365Z,34.08
2023-02-12T23:09:19.363Z,32.33
2023-02-12T23:11:48.598Z,34.20
2023-02-12T23:14:17.464Z,32.87
2023-02-12T23:16:45.603Z,33.92
2023-02-12T23:19:14.088Z,36.38
2023-02-12T23:21:42.213Z,34.88
2023-02-12T23:24:14.350Z,36.53
2023-02-12T23:26:42.162Z,33.80
2023-02-12T23:29:10.324Z,35.75
2023-02-12T23:31:38.378Z,34.30
2023-02-12T23:34:06.503Z,35.15
2023-02-12T23:36:34.232Z,35.13
2023-02-12T23:39:06.536Z,38.53
2023-02-12T23:41:34.320Z,35.05
2023-02-12T23:44:02.376Z,35.20
2023-02-12T23:46:30.208Z,37.03
2023-02-12T23:48:58.348Z,36.75
2023-02-12T23:51:26.315Z,36.47
2023-02-12T23:53:54.351Z,36.08
2023-02-12T23:56:22.481Z,38.35
2023-02-12T23:58:50.615Z,38.00
